Thornfield, Missouri
Current Conditions -  °F | °C
As of 3:53 PM on Thursday 23 Oct 2014 (Local Time) from KBPK Reporting Station
Broken Clouds Broken Clouds  
Wind Chill: 61°   Ceiling: 4900
Heat Index: 61°   Visibility: 10mi
Dew Point: 48°   Wind: 3mph
Humidity: 62%   Direction: 130°SE
Pressure: 30.14"   Gusts: NA
Location:  36.71°N, 92.66°W
Report Text: KBPK 232053Z AUTO 13003KT 10SM BKN049 16/09 A3014 RMK AO2 SLP204 T01610089 56014
Loading
Personal Weather Stations






























Interactive Weather Map
Tropical Storm Tracking
New forecast layout! Learn more

10-Day Weather Forecast

Advertisements
Track Severe Weather on mobile